createdAt,value
2023-03-24T00:00:23.069Z,11.95
2023-03-24T00:02:51.304Z,11.93
2023-03-24T00:05:20.764Z,11.91
2023-03-24T00:07:48.104Z,11.89
2023-03-24T00:10:17.234Z,11.87
2023-03-24T00:12:44.884Z,11.90
2023-03-24T00:15:15.529Z,11.86
2023-03-24T00:17:42.285Z,11.85
2023-03-24T00:20:16.179Z,11.85
2023-03-24T00:22:44.488Z,11.68
2023-03-24T00:25:11.296Z,11.60
2023-03-24T00:27:38.398Z,11.59
2023-03-24T00:30:07.709Z,11.60
2023-03-24T00:32:35.422Z,11.65
2023-03-24T00:35:01.828Z,11.64
2023-03-24T00:37:28.524Z,11.50
2023-03-24T00:39:55.015Z,11.46
2023-03-24T00:42:21.489Z,11.40
2023-03-24T00:44:47.886Z,11.43
2023-03-24T00:47:14.342Z,11.41
2023-03-24T00:49:40.878Z,11.29
2023-03-24T00:52:18.514Z,11.28
2023-03-24T00:54:45.306Z,11.17
2023-03-24T00:57:13.811Z,11.07
2023-03-24T00:59:40.620Z,10.95
2023-03-24T01:02:07.171Z,10.95
2023-03-24T01:04:33.565Z,10.90
2023-03-24T01:06:59.998Z,10.83
2023-03-24T01:09:26.385Z,10.80
2023-03-24T01:11:52.742Z,10.75
2023-03-24T01:14:19.145Z,10.72
2023-03-24T01:16:45.580Z,10.64
2023-03-24T01:19:12.007Z,10.57
2023-03-24T01:21:39.809Z,10.55
2023-03-24T01:24:06.726Z,10.52
2023-03-24T01:26:33.340Z,10.47
2023-03-24T01:29:00.101Z,10.48
2023-03-24T01:31:26.909Z,10.48
2023-03-24T01:33:53.643Z,10.43
2023-03-24T01:36:20.161Z,10.39
2023-03-24T01:38:46.921Z,10.33
2023-03-24T01:41:13.391Z,10.28
2023-03-24T01:43:40.334Z,10.24
2023-03-24T01:46:19.098Z,10.25
2023-03-24T01:48:49.574Z,10.28
2023-03-24T01:51:29.854Z,10.31
2023-03-24T01:54:02.636Z,10.25
2023-03-24T01:56:35.484Z,10.28
2023-03-24T01:59:06.730Z,10.31
2023-03-24T02:01:33.884Z,10.33
2023-03-24T02:04:03.021Z,10.31
2023-03-24T02:06:31.024Z,10.28
2023-03-24T02:08:59.505Z,10.24
2023-03-24T02:11:29.964Z,10.18
2023-03-24T02:13:56.995Z,10.20
2023-03-24T02:16:35.654Z,10.21
2023-03-24T02:19:34.921Z,10.23
2023-03-24T02:22:18.547Z,10.28
2023-03-24T02:24:57.288Z,10.33
2023-03-24T02:27:57.388Z,10.29
2023-03-24T02:30:34.605Z,10.29
2023-03-24T02:33:45.801Z,10.27
2023-03-24T02:36:24.423Z,10.28
2023-03-24T02:39:09.493Z,10.28
2023-03-24T02:41:48.996Z,10.33
2023-03-24T02:44:32.462Z,10.39
2023-03-24T02:47:09.798Z,10.35
2023-03-24T02:49:45.398Z,10.36
2023-03-24T02:52:32.991Z,10.40
2023-03-24T02:55:19.620Z,10.38
2023-03-24T02:58:02.193Z,10.39
2023-03-24T03:00:35.788Z,10.40
2023-03-24T03:03:08.382Z,10.42
2023-03-24T03:05:40.687Z,10.42
2023-03-24T03:08:12.257Z,10.37
2023-03-24T03:10:43.472Z,10.40
2023-03-24T03:13:44.419Z,10.41
2023-03-24T03:16:18.692Z,10.42
2023-03-24T03:18:51.414Z,10.45
2023-03-24T03:21:22.981Z,10.44
2023-03-24T03:23:59.050Z,10.42
2023-03-24T03:26:28.254Z,10.47
2023-03-24T03:29:01.784Z,10.50
2023-03-24T03:31:54.836Z,10.48
2023-03-24T03:34:55.384Z,10.48
2023-03-24T03:37:53.157Z,10.42
2023-03-24T03:40:32.937Z,10.34
2023-03-24T03:42:59.594Z,10.36
2023-03-24T03:45:26.061Z,10.40
2023-03-24T03:47:52.598Z,10.39
2023-03-24T03:50:18.978Z,10.44
2023-03-24T03:52:45.770Z,10.48
2023-03-24T03:55:14.853Z,10.41
2023-03-24T03:57:42.793Z,10.38
2023-03-24T04:00:15.837Z,10.36
2023-03-24T04:03:13.050Z,10.32
2023-03-24T04:05:48.483Z,10.28
2023-03-24T04:08:21.146Z,10.28
2023-03-24T04:10:50.794Z,10.33
2023-03-24T04:13:30.127Z,10.31
2023-03-24T04:16:27.890Z,10.33
2023-03-24T04:19:09.203Z,10.33
2023-03-24T04:22:06.233Z,10.34
2023-03-24T04:25:02.669Z,10.40
2023-03-24T04:27:43.737Z,10.41
2023-03-24T04:30:47.408Z,10.39
2023-03-24T04:33:19.144Z,10.42
2023-03-24T04:35:51.014Z,10.37
2023-03-24T04:38:21.894Z,10.36
2023-03-24T04:40:49.668Z,10.39
2023-03-24T04:43:20.413Z,10.41
2023-03-24T04:45:48.134Z,10.45
2023-03-24T04:48:16.297Z,10.47
2023-03-24T04:50:44.590Z,10.52
2023-03-24T04:53:11.407Z,10.53
2023-03-24T04:55:50.014Z,10.57
2023-03-24T04:58:18.757Z,10.59
2023-03-24T05:00:45.817Z,10.63
2023-03-24T05:03:14.558Z,10.64
2023-03-24T05:05:42.665Z,10.64
2023-03-24T05:08:09.880Z,10.68
2023-03-24T05:10:36.981Z,10.70
2023-03-24T05:13:06.720Z,10.73
2023-03-24T05:15:33.677Z,10.74
2023-03-24T05:18:00.385Z,10.74
2023-03-24T05:20:27.098Z,10.73
2023-03-24T05:22:54.038Z,10.76
2023-03-24T05:25:20.740Z,10.79
2023-03-24T05:27:47.967Z,10.78
2023-03-24T05:30:15.516Z,10.79
2023-03-24T05:32:42.426Z,10.82
2023-03-24T05:35:09.251Z,10.83
2023-03-24T05:37:35.765Z,10.88
2023-03-24T05:40:02.668Z,10.89
2023-03-24T05:42:29.023Z,10.94
2023-03-24T05:44:55.351Z,10.98
2023-03-24T05:47:22.183Z,11.02
2023-03-24T05:49:48.791Z,11.48
2023-03-24T05:52:15.292Z,12.14
2023-03-24T05:54:42.076Z,12.27
2023-03-24T05:57:12.025Z,12.56
2023-03-24T05:59:38.414Z,12.58
2023-03-24T06:02:05.046Z,12.64
2023-03-24T06:04:31.783Z,12.76
2023-03-24T06:06:58.618Z,12.75
2023-03-24T06:09:29.542Z,12.63
2023-03-24T06:11:56.438Z,12.55
2023-03-24T06:14:22.795Z,12.60
2023-03-24T06:16:49.288Z,12.58
2023-03-24T06:19:17.323Z,12.58
2023-03-24T06:21:43.888Z,12.50
2023-03-24T06:24:11.051Z,12.41
2023-03-24T06:26:37.709Z,12.34
2023-03-24T06:29:04.275Z,12.34
2023-03-24T06:31:31.038Z,12.36
2023-03-24T06:33:57.492Z,12.37
2023-03-24T06:36:24.029Z,12.43
2023-03-24T06:38:51.062Z,12.48
2023-03-24T06:41:17.941Z,12.58
2023-03-24T06:43:44.379Z,12.61
2023-03-24T06:46:11.045Z,12.59
2023-03-24T06:48:37.693Z,12.59
2023-03-24T06:51:04.714Z,12.54
2023-03-24T06:53:31.192Z,12.52
2023-03-24T06:55:57.989Z,12.50
2023-03-24T06:58:24.417Z,12.48
2023-03-24T07:00:50.933Z,12.49
2023-03-24T07:03:17.785Z,12.50
2023-03-24T07:05:45.182Z,12.53
2023-03-24T07:10:42.229Z,12.50
2023-03-24T07:13:08.799Z,12.46
2023-03-24T07:15:35.908Z,12.51
2023-03-24T07:18:02.357Z,12.52
2023-03-24T07:20:28.965Z,12.52
2023-03-24T07:22:56.912Z,12.56
2023-03-24T07:25:24.134Z,12.55
2023-03-24T07:27:54.251Z,12.51
2023-03-24T07:30:27.311Z,12.47
2023-03-24T07:33:00.042Z,12.43
2023-03-24T07:35:26.628Z,12.40
2023-03-24T07:37:52.975Z,12.34
2023-03-24T07:40:19.516Z,12.29
2023-03-24T07:42:45.860Z,12.26
2023-03-24T07:45:13.326Z,12.23
2023-03-24T07:47:44.635Z,12.17
2023-03-24T07:50:12.619Z,12.10
2023-03-24T07:52:46.663Z,12.07
2023-03-24T07:55:13.174Z,12.09
2023-03-24T07:57:46.154Z,12.04
2023-03-24T08:00:13.401Z,12.05
2023-03-24T08:02:39.832Z,12.08
2023-03-24T08:05:06.585Z,12.02
2023-03-24T08:07:32.967Z,12.06
2023-03-24T08:09:59.335Z,12.08
2023-03-24T08:12:25.843Z,12.11
2023-03-24T08:14:52.528Z,12.10
2023-03-24T08:17:18.926Z,12.11
2023-03-24T08:19:58.244Z,12.12
2023-03-24T08:22:25.878Z,12.19
2023-03-24T08:24:52.394Z,12.19
2023-03-24T08:27:19.278Z,12.20
2023-03-24T08:29:45.966Z,12.27
2023-03-24T08:32:12.466Z,12.29
2023-03-24T08:34:38.858Z,12.28
2023-03-24T08:37:05.272Z,12.33
2023-03-24T08:39:31.677Z,12.45
2023-03-24T08:41:58.123Z,12.47
2023-03-24T08:44:24.489Z,12.68
2023-03-24T08:46:50.935Z,12.76
2023-03-24T08:49:17.532Z,12.79
2023-03-24T08:51:44.772Z,12.59
2023-03-24T08:54:11.493Z,12.75
2023-03-24T08:56:38.963Z,12.60
2023-03-24T08:59:07.125Z,12.51
2023-03-24T09:01:33.889Z,12.73
2023-03-24T09:04:00.309Z,12.80
2023-03-24T09:06:26.863Z,12.83
2023-03-24T09:08:54.685Z,12.78
2023-03-24T09:11:22.499Z,12.91
2023-03-24T09:13:49.517Z,12.89
2023-03-24T09:16:17.441Z,13.02
2023-03-24T09:18:44.586Z,13.10
2023-03-24T09:21:11.099Z,13.14
2023-03-24T09:23:37.576Z,13.11
2023-03-24T09:26:05.375Z,13.03
2023-03-24T09:28:32.136Z,13.25
2023-03-24T09:31:00.987Z,13.27
2023-03-24T09:33:27.637Z,13.43
2023-03-24T09:36:00.030Z,13.46
2023-03-24T09:38:27.775Z,13.58
2023-03-24T09:40:58.060Z,13.67
2023-03-24T09:43:31.738Z,13.76
2023-03-24T09:46:01.118Z,13.78
2023-03-24T09:48:36.926Z,13.79
2023-03-24T09:51:20.414Z,14.15
2023-03-24T09:53:52.900Z,14.36
2023-03-24T09:56:25.861Z,14.35
2023-03-24T09:59:04.352Z,14.54
2023-03-24T10:01:30.887Z,14.53
2023-03-24T10:04:00.207Z,14.79
2023-03-24T10:06:36.786Z,15.16
2023-03-24T10:09:20.811Z,15.01
2023-03-24T10:11:54.167Z,15.54
2023-03-24T10:14:44.128Z,15.73
2023-03-24T10:17:33.484Z,15.70
2023-03-24T10:20:06.181Z,15.70
2023-03-24T10:22:35.529Z,15.80
2023-03-24T10:25:23.911Z,15.59
2023-03-24T10:27:59.761Z,15.34
2023-03-24T10:30:33.264Z,15.36
2023-03-24T10:32:59.684Z,15.35
2023-03-24T10:35:30.553Z,15.32
2023-03-24T10:38:01.030Z,15.19
2023-03-24T10:40:33.192Z,15.20
2023-03-24T10:43:06.841Z,15.31
2023-03-24T10:45:39.415Z,15.30
2023-03-24T10:48:06.442Z,15.16
2023-03-24T10:50:33.694Z,15.30
2023-03-24T10:53:00.161Z,15.40
2023-03-24T10:55:35.514Z,15.52
2023-03-24T10:58:02.922Z,15.58
2023-03-24T11:00:31.408Z,15.45
2023-03-24T11:03:05.097Z,15.38
2023-03-24T11:05:37.586Z,15.28
2023-03-24T11:08:22.865Z,15.33
2023-03-24T11:10:52.116Z,15.31
2023-03-24T11:13:40.049Z,15.37
2023-03-24T11:16:15.420Z,15.34
2023-03-24T11:19:03.199Z,15.49
2023-03-24T11:21:33.149Z,15.71
2023-03-24T11:24:02.293Z,15.89
2023-03-24T11:26:33.943Z,15.98
2023-03-24T11:29:05.368Z,16.16
2023-03-24T11:31:34.414Z,16.47
2023-03-24T11:34:07.473Z,16.00
2023-03-24T11:36:44.038Z,16.32
2023-03-24T11:39:14.516Z,16.22
2023-03-24T11:41:59.868Z,16.33
2023-03-24T11:44:26.588Z,16.56
2023-03-24T11:47:00.535Z,16.75
2023-03-24T11:49:31.593Z,16.75
2023-03-24T11:51:58.947Z,16.46
2023-03-24T11:54:35.662Z,16.43
2023-03-24T11:57:16.496Z,16.56
2023-03-24T11:59:56.520Z,16.42
2023-03-24T12:02:47.860Z,16.02
2023-03-24T12:05:30.794Z,15.91
2023-03-24T12:08:03.597Z,15.79
2023-03-24T12:10:41.541Z,15.61
2023-03-24T12:13:31.814Z,15.70
2023-03-24T12:16:23.291Z,15.63
2023-03-24T12:19:04.740Z,15.73
2023-03-24T12:21:52.949Z,15.65
2023-03-24T12:24:38.915Z,15.57
2023-03-24T12:27:05.279Z,15.74
2023-03-24T12:29:47.220Z,15.73
2023-03-24T12:32:24.237Z,15.84
2023-03-24T12:35:12.475Z,15.63
2023-03-24T12:37:57.050Z,15.45
2023-03-24T12:40:58.935Z,15.47
2023-03-24T12:44:03.543Z,15.24
2023-03-24T12:47:07.673Z,15.19
2023-03-24T12:49:52.384Z,15.24
2023-03-24T12:52:49.060Z,15.29
2023-03-24T12:55:38.232Z,15.27
2023-03-24T12:58:26.298Z,15.32
2023-03-24T13:01:05.202Z,15.29
2023-03-24T13:03:48.357Z,15.20
2023-03-24T13:06:24.434Z,15.10
2023-03-24T13:09:08.351Z,15.17
2023-03-24T13:11:43.164Z,15.22
2023-03-24T13:14:16.719Z,15.14
2023-03-24T13:16:47.695Z,15.09
2023-03-24T13:19:24.043Z,15.05
2023-03-24T13:21:54.387Z,15.01
2023-03-24T13:24:21.089Z,14.96
2023-03-24T13:27:01.101Z,14.91
2023-03-24T13:30:00.359Z,14.95
2023-03-24T13:32:36.129Z,15.11
2023-03-24T13:35:24.460Z,15.10
2023-03-24T13:37:55.325Z,15.07
2023-03-24T13:40:26.922Z,15.09
2023-03-24T13:42:57.115Z,14.95
2023-03-24T13:45:35.300Z,14.82
2023-03-24T13:48:09.599Z,14.75
2023-03-24T13:50:53.712Z,14.72
2023-03-24T13:53:30.833Z,14.65
2023-03-24T13:55:57.702Z,14.62
2023-03-24T13:58:26.449Z,14.56
2023-03-24T14:01:11.763Z,14.48
2023-03-24T14:03:41.643Z,14.50
2023-03-24T14:06:10.015Z,14.47
2023-03-24T14:08:55.678Z,14.39
2023-03-24T14:12:03.454Z,14.48
2023-03-24T14:14:30.589Z,14.40
2023-03-24T14:17:06.478Z,14.39
2023-03-24T14:19:38.629Z,14.40
2023-03-24T14:22:33.781Z,14.38
2023-03-24T14:25:22.624Z,14.33
2023-03-24T14:27:55.534Z,14.31
2023-03-24T14:30:28.518Z,14.33
2023-03-24T14:32:57.130Z,14.31
2023-03-24T14:35:44.877Z,14.33
2023-03-24T14:38:17.105Z,14.33
2023-03-24T14:40:46.654Z,14.28
2023-03-24T14:43:17.197Z,14.26
2023-03-24T14:45:53.889Z,14.33
2023-03-24T14:48:29.934Z,14.21
2023-03-24T14:51:03.482Z,14.20
2023-03-24T14:53:30.224Z,14.24
2023-03-24T14:55:57.106Z,14.26
2023-03-24T14:58:37.682Z,14.31
2023-03-24T15:01:07.872Z,14.34
2023-03-24T15:03:48.931Z,14.22
2023-03-24T15:06:20.157Z,14.26
2023-03-24T15:08:54.145Z,14.07
2023-03-24T15:11:25.919Z,14.10
2023-03-24T15:13:54.844Z,14.00
2023-03-24T15:16:27.478Z,13.90
2023-03-24T15:19:02.094Z,13.85
2023-03-24T15:21:34.306Z,13.76
2023-03-24T15:24:02.273Z,13.83
2023-03-24T15:26:31.162Z,13.83
2023-03-24T15:29:04.487Z,13.75
2023-03-24T15:31:31.565Z,13.73
2023-03-24T15:34:05.592Z,13.74
2023-03-24T15:36:39.092Z,13.74
2023-03-24T15:39:20.272Z,13.71
2023-03-24T15:41:50.762Z,13.72
2023-03-24T15:44:19.542Z,13.74
2023-03-24T15:46:46.729Z,13.68
2023-03-24T15:49:25.892Z,13.62
2023-03-24T15:52:18.928Z,13.56
2023-03-24T15:54:45.707Z,13.42
2023-03-24T15:57:18.260Z,12.66
2023-03-24T16:00:14.104Z,12.23
2023-03-24T16:02:48.764Z,12.05
2023-03-24T16:05:21.348Z,11.80
2023-03-24T16:07:58.487Z,11.63
2023-03-24T16:10:26.839Z,11.59
2023-03-24T16:12:53.508Z,11.54
2023-03-24T16:15:19.929Z,11.49
2023-03-24T16:17:46.383Z,11.46
2023-03-24T16:20:20.227Z,11.46
2023-03-24T16:22:46.621Z,11.37
2023-03-24T16:25:14.979Z,11.36
2023-03-24T16:27:41.630Z,11.27
2023-03-24T16:30:19.984Z,11.26
2023-03-24T16:32:46.612Z,11.21
2023-03-24T16:35:13.324Z,11.30
2023-03-24T16:37:39.826Z,11.35
2023-03-24T16:40:25.492Z,11.46
2023-03-24T16:42:51.950Z,11.52
2023-03-24T16:45:18.481Z,11.62
2023-03-24T16:47:44.944Z,11.68
2023-03-24T16:50:23.557Z,11.69
2023-03-24T16:52:50.189Z,11.73
2023-03-24T16:55:16.608Z,11.76
2023-03-24T16:57:43.144Z,11.79
2023-03-24T17:00:10.364Z,11.84
2023-03-24T17:02:40.856Z,11.84
2023-03-24T17:05:29.649Z,11.89
2023-03-24T17:07:56.961Z,11.92
2023-03-24T17:10:25.254Z,11.99
2023-03-24T17:12:54.388Z,12.01
2023-03-24T17:15:24.867Z,11.99
2023-03-24T17:17:51.617Z,11.90
2023-03-24T17:20:19.355Z,11.83
2023-03-24T17:22:47.422Z,11.83
2023-03-24T17:25:22.428Z,11.72
2023-03-24T17:27:49.949Z,11.64
2023-03-24T17:30:21.796Z,11.59
2023-03-24T17:32:49.653Z,11.56
2023-03-24T17:35:18.863Z,11.55
2023-03-24T17:37:46.186Z,11.51
2023-03-24T17:40:14.636Z,11.45
2023-03-24T17:42:45.804Z,11.42
2023-03-24T17:45:15.680Z,11.41
2023-03-24T17:47:42.481Z,11.33
2023-03-24T17:50:09.559Z,11.45
2023-03-24T17:52:37.407Z,11.42
2023-03-24T17:55:05.039Z,11.34
2023-03-24T17:57:32.422Z,11.26
2023-03-24T17:59:59.097Z,11.17
2023-03-24T18:02:25.857Z,11.08
2023-03-24T18:04:52.371Z,10.99
2023-03-24T18:07:18.782Z,10.95
2023-03-24T18:09:45.595Z,10.86
2023-03-24T18:12:12.005Z,10.77
2023-03-24T18:14:38.509Z,10.78
2023-03-24T18:17:05.062Z,10.75
2023-03-24T18:19:31.551Z,10.71
2023-03-24T18:21:58.026Z,10.63
2023-03-24T18:24:24.516Z,10.57
2023-03-24T18:26:51.037Z,10.57
2023-03-24T18:29:17.772Z,10.51
2023-03-24T18:31:44.391Z,10.45
2023-03-24T18:34:10.886Z,10.47
2023-03-24T18:36:37.419Z,10.42
2023-03-24T18:39:09.198Z,10.27
2023-03-24T18:41:37.424Z,10.26
2023-03-24T18:44:07.041Z,10.22
2023-03-24T18:46:34.032Z,10.23
2023-03-24T18:49:00.577Z,10.17
2023-03-24T18:51:27.434Z,10.15
2023-03-24T18:53:53.948Z,10.07
2023-03-24T18:56:20.940Z,10.06
2023-03-24T18:58:48.339Z,10.03
2023-03-24T19:01:17.448Z,10.04
2023-03-24T19:03:44.835Z,10.04
2023-03-24T19:06:13.637Z,10.04
2023-03-24T19:08:42.906Z,10.06
2023-03-24T19:11:11.138Z,10.01
2023-03-24T19:13:38.352Z,10.07
2023-03-24T19:16:05.836Z,10.11
2023-03-24T19:18:32.578Z,9.97
2023-03-24T19:20:59.248Z,9.89
2023-03-24T19:23:26.667Z,9.79
2023-03-24T19:25:53.365Z,9.75
2023-03-24T19:28:19.805Z,9.79
2023-03-24T19:30:46.368Z,9.85
2023-03-24T19:33:12.984Z,9.89
2023-03-24T19:35:39.834Z,9.87
2023-03-24T19:38:06.378Z,9.70
2023-03-24T19:40:32.803Z,9.62
2023-03-24T19:42:59.327Z,9.60
2023-03-24T19:45:25.766Z,9.57
2023-03-24T19:47:52.565Z,9.59
2023-03-24T19:50:19.883Z,9.59
2023-03-24T19:52:46.407Z,9.56
2023-03-24T19:55:13.658Z,9.52
2023-03-24T19:57:41.208Z,9.51
2023-03-24T20:00:14.171Z,9.47
2023-03-24T20:02:41.633Z,9.51
2023-03-24T20:05:09.363Z,9.47
2023-03-24T20:07:36.190Z,9.49
2023-03-24T20:10:02.807Z,9.50
2023-03-24T20:12:29.206Z,9.54
2023-03-24T20:14:55.684Z,9.46
2023-03-24T20:17:23.869Z,9.41
2023-03-24T20:19:50.715Z,9.43
2023-03-24T20:22:17.566Z,9.46
2023-03-24T20:24:44.994Z,9.52
2023-03-24T20:27:12.347Z,9.52
2023-03-24T20:29:43.015Z,9.65
2023-03-24T20:32:09.637Z,9.71
2023-03-24T20:34:38.815Z,9.68
2023-03-24T20:37:07.731Z,9.55
2023-03-24T20:39:35.053Z,9.79
2023-03-24T20:42:01.529Z,9.63
2023-03-24T20:44:29.001Z,9.54
2023-03-24T20:46:58.830Z,9.51
2023-03-24T20:49:26.021Z,9.50
2023-03-24T20:51:53.480Z,9.35
2023-03-24T20:54:20.620Z,9.21
2023-03-24T20:56:48.021Z,9.14
2023-03-24T20:59:14.921Z,9.13
2023-03-24T21:01:41.604Z,9.23
2023-03-24T21:04:09.599Z,9.22
2023-03-24T21:06:39.369Z,9.18
2023-03-24T21:09:06.183Z,9.15
2023-03-24T21:11:33.062Z,9.04
2023-03-24T21:14:00.048Z,9.18
2023-03-24T21:16:27.286Z,9.11
2023-03-24T21:18:54.706Z,9.17
2023-03-24T21:21:21.588Z,9.15
2023-03-24T21:23:48.456Z,9.18
2023-03-24T21:26:16.710Z,9.27
2023-03-24T21:28:43.746Z,9.24
2023-03-24T21:31:16.519Z,9.20
2023-03-24T21:33:43.264Z,9.22
2023-03-24T21:36:12.921Z,9.17
2023-03-24T21:38:39.731Z,9.16
2023-03-24T21:41:07.090Z,9.19
2023-03-24T21:43:33.934Z,9.21
2023-03-24T21:46:00.915Z,9.31
2023-03-24T21:48:27.356Z,9.38
2023-03-24T21:50:55.130Z,9.38
2023-03-24T21:53:23.077Z,9.38
2023-03-24T21:55:53.434Z,9.41
2023-03-24T21:58:20.108Z,9.48
2023-03-24T22:00:47.841Z,9.51
2023-03-24T22:03:14.701Z,9.58
2023-03-24T22:05:41.320Z,9.54
2023-03-24T22:08:09.240Z,9.54
2023-03-24T22:10:36.633Z,9.51
2023-03-24T22:13:04.318Z,9.56
2023-03-24T22:15:33.336Z,9.54
2023-03-24T22:18:00.834Z,9.50
2023-03-24T22:20:27.471Z,9.54
2023-03-24T22:22:54.373Z,9.47
2023-03-24T22:25:21.182Z,9.47
2023-03-24T22:27:47.701Z,9.51
2023-03-24T22:30:15.063Z,9.53
2023-03-24T22:32:41.907Z,9.55
2023-03-24T22:35:08.786Z,9.55
2023-03-24T22:37:35.345Z,9.51
2023-03-24T22:40:03.268Z,9.55
2023-03-24T22:42:29.753Z,9.57
2023-03-24T22:44:56.544Z,9.58
2023-03-24T22:47:23.294Z,9.58
2023-03-24T22:49:49.695Z,9.59
2023-03-24T22:52:16.199Z,9.57
2023-03-24T22:54:42.664Z,9.55
2023-03-24T22:57:09.076Z,9.56
2023-03-24T22:59:35.457Z,9.54
2023-03-24T23:02:09.117Z,9.52
2023-03-24T23:04:36.140Z,9.55
2023-03-24T23:07:02.567Z,9.60
2023-03-24T23:09:29.107Z,9.61
2023-03-24T23:11:56.016Z,9.63
2023-03-24T23:14:22.498Z,9.64
2023-03-24T23:16:49.001Z,9.67
2023-03-24T23:19:15.347Z,9.63
2023-03-24T23:21:41.736Z,9.57
2023-03-24T23:24:08.287Z,9.55
2023-03-24T23:26:35.158Z,9.47
2023-03-24T23:29:01.480Z,9.43
2023-03-24T23:31:29.429Z,9.34
2023-03-24T23:33:57.070Z,9.39
2023-03-24T23:36:27.146Z,9.33
2023-03-24T23:38:54.410Z,9.30
2023-03-24T23:41:21.270Z,9.27
2023-03-24T23:43:49.207Z,9.31
2023-03-24T23:46:16.291Z,9.30
2023-03-24T23:48:43.042Z,9.34
2023-03-24T23:51:09.772Z,9.34
2023-03-24T23:53:36.808Z,9.36
2023-03-24T23:56:06.476Z,9.35
2023-03-24T23:58:38.464Z,9.34
